createdAt,value
2022-09-20T00:01:42.191Z,96573.00
2022-09-20T00:06:20.121Z,96570.00
2022-09-20T00:11:01.687Z,96572.00
2022-09-20T00:15:07.323Z,96573.00
2022-09-20T00:19:17.582Z,96575.00
2022-09-20T00:23:21.255Z,96566.00
2022-09-20T00:27:55.534Z,96575.00
2022-09-20T00:32:00.345Z,96569.00
2022-09-20T00:36:03.935Z,96565.00
2022-09-20T00:40:10.154Z,96560.00
2022-09-20T00:44:42.791Z,96569.00
2022-09-20T00:49:17.095Z,96569.00
2022-09-20T00:53:47.801Z,96563.00
2022-09-20T00:57:51.512Z,96560.00
2022-09-20T01:02:31.780Z,96567.00
2022-09-20T01:07:05.184Z,96569.00
2022-09-20T01:11:09.831Z,96572.00
2022-09-20T01:15:14.544Z,96564.00
2022-09-20T01:19:48.507Z,96570.00
2022-09-20T01:24:02.120Z,96573.00
2022-09-20T01:28:06.946Z,96560.00
2022-09-20T01:32:14.119Z,96555.00
2022-09-20T01:36:44.856Z,96556.00
2022-09-20T01:41:24.865Z,96562.00
2022-09-20T01:45:33.391Z,96553.00
2022-09-20T01:49:46.060Z,96555.00
2022-09-20T01:54:22.687Z,96543.00
2022-09-20T01:59:22.163Z,96551.00
2022-09-20T02:04:07.431Z,96556.00
2022-09-20T02:09:05.129Z,96555.00
2022-09-20T02:13:18.056Z,96555.00
2022-09-20T02:17:50.343Z,96560.00
2022-09-20T02:22:04.975Z,96560.00
2022-09-20T02:26:48.573Z,96554.00
2022-09-20T02:30:59.137Z,96557.00
2022-09-20T02:35:16.363Z,96561.00
2022-09-20T02:39:44.236Z,96559.00
2022-09-20T02:43:55.829Z,96553.00
2022-09-20T02:48:26.972Z,96560.00
2022-09-20T02:52:37.836Z,96563.00
2022-09-20T02:57:13.465Z,96558.00
2022-09-20T03:01:32.395Z,96560.00
2022-09-20T03:05:49.275Z,96563.00
2022-09-20T03:10:20.450Z,96567.00
2022-09-20T03:14:29.581Z,96572.00
2022-09-20T03:19:05.386Z,96576.00
2022-09-20T03:23:22.353Z,96575.00
2022-09-20T03:27:52.027Z,96573.00
2022-09-20T03:32:13.364Z,96575.00
2022-09-20T03:36:41.241Z,96572.00
2022-09-20T03:41:23.434Z,96575.00
2022-09-20T03:46:04.406Z,96581.00
2022-09-20T03:50:22.226Z,96575.00
2022-09-20T03:54:54.250Z,96578.00
2022-09-20T03:59:40.930Z,96559.00
2022-09-20T04:04:09.131Z,96572.00
2022-09-20T04:08:49.793Z,96566.00
2022-09-20T04:13:32.299Z,96570.00
2022-09-20T04:18:04.003Z,96570.00
2022-09-20T04:22:09.586Z,96570.00
2022-09-20T04:26:13.214Z,96573.00
2022-09-20T04:30:47.743Z,96582.00
2022-09-20T04:35:18.022Z,96585.00
2022-09-20T04:39:42.492Z,96584.00
2022-09-20T04:44:35.587Z,96595.00
2022-09-20T04:49:27.479Z,96593.00
2022-09-20T04:54:07.372Z,96600.00
2022-09-20T04:59:05.209Z,96602.00
2022-09-20T05:03:54.804Z,96598.00
2022-09-20T05:08:39.300Z,96610.00
2022-09-20T05:13:25.990Z,96611.00
2022-09-20T05:18:12.827Z,96607.00
2022-09-20T05:22:53.392Z,96608.00
2022-09-20T05:27:29.310Z,96612.00
2022-09-20T05:31:40.698Z,96617.00
2022-09-20T05:36:15.350Z,96621.00
2022-09-20T05:40:51.168Z,96634.00
2022-09-20T05:45:24.284Z,96634.00
2022-09-20T05:49:42.903Z,96640.00
2022-09-20T05:54:25.503Z,96641.00
2022-09-20T05:59:13.988Z,96646.00
2022-09-20T06:03:55.899Z,96639.00
2022-09-20T06:08:36.196Z,96636.00
2022-09-20T06:12:53.019Z,96642.00
2022-09-20T06:17:04.213Z,96648.00
2022-09-20T06:21:41.321Z,96644.00
2022-09-20T06:25:50.810Z,96647.00
2022-09-20T06:30:24.282Z,96646.00
2022-09-20T06:35:00.665Z,96647.00
2022-09-20T06:40:08.691Z,96653.00
2022-09-20T06:44:45.371Z,96645.00
2022-09-20T06:49:22.600Z,96655.00
2022-09-20T06:54:00.165Z,96659.00
2022-09-20T06:58:37.011Z,96654.00
2022-09-20T07:03:13.950Z,96651.00
2022-09-20T07:07:57.579Z,96662.00
2022-09-20T07:12:00.881Z,96658.00
2022-09-20T07:16:05.008Z,96655.00
2022-09-20T07:20:39.540Z,96657.00
2022-09-20T07:24:45.075Z,96651.00
2022-09-20T07:29:18.967Z,96656.00
2022-09-20T07:33:56.125Z,96663.00
2022-09-20T07:38:33.187Z,96671.00
2022-09-20T07:43:11.538Z,96680.00
2022-09-20T07:51:44.863Z,96680.00
2022-09-20T07:56:23.747Z,96685.00
2022-09-20T08:01:00.360Z,96691.00
2022-09-20T08:05:35.877Z,96697.00
2022-09-20T08:10:09.851Z,96692.00
2022-09-20T08:14:46.851Z,96699.00
2022-09-20T08:18:53.003Z,96710.00
2022-09-20T08:23:27.162Z,96705.00
2022-09-20T08:28:04.415Z,96712.00
2022-09-20T17:29:00.321Z,96808.00
2022-09-20T17:33:03.719Z,96826.00
2022-09-20T17:37:13.321Z,96838.00
2022-09-20T17:41:24.339Z,96843.00
2022-09-20T17:45:28.875Z,96847.00
2022-09-20T17:49:38.328Z,96853.00
2022-09-20T17:53:48.340Z,96858.00
2022-09-20T17:58:00.394Z,96858.00
2022-09-20T18:02:04.945Z,96863.00
2022-09-20T18:06:24.961Z,96870.00
2022-09-20T18:10:35.336Z,96868.00
2022-09-20T18:14:46.345Z,96876.00
2022-09-20T18:18:51.824Z,96874.00
2022-09-20T18:23:01.321Z,96875.00
2022-09-20T18:27:11.324Z,96886.00
2022-09-20T18:31:21.383Z,96890.00
2022-09-20T18:35:34.321Z,96902.00
2022-09-20T18:39:44.335Z,96900.00
2022-09-20T18:43:54.685Z,96902.00
2022-09-20T18:48:05.320Z,96901.00
2022-09-20T18:52:12.329Z,96910.00
2022-09-20T18:56:31.429Z,96915.00
2022-09-20T19:00:41.394Z,96914.00
2022-09-20T19:05:05.303Z,96911.00
2022-09-20T19:09:16.225Z,96916.00
2022-09-20T19:13:36.289Z,96925.00
2022-09-20T19:18:00.304Z,96930.00
2022-09-20T19:22:20.311Z,96926.00
2022-09-20T19:26:32.303Z,96933.00
2022-09-20T19:30:49.306Z,96936.00
2022-09-20T19:34:55.895Z,96940.00
2022-09-20T19:39:16.348Z,96939.00
2022-09-20T19:43:38.186Z,96940.00
2022-09-20T19:47:58.330Z,96932.00
2022-09-20T19:52:11.357Z,96950.00
2022-09-20T19:56:31.306Z,96942.00
2022-09-20T20:00:43.294Z,96947.00
2022-09-20T20:04:46.935Z,96945.00
2022-09-20T20:09:02.305Z,96949.00
2022-09-20T20:13:40.323Z,96956.00
2022-09-20T20:18:02.324Z,96954.00
2022-09-20T20:22:19.320Z,96963.00
2022-09-20T20:26:24.229Z,96978.00
2022-09-20T20:30:34.341Z,96980.00
2022-09-20T20:34:52.337Z,96982.00
2022-09-20T20:38:55.512Z,96976.00
2022-09-20T20:43:08.332Z,96980.00
2022-09-20T20:47:18.334Z,96975.00
2022-09-20T20:51:30.299Z,96987.00
2022-09-20T20:55:40.330Z,96986.00
2022-09-20T20:59:50.310Z,96987.00
2022-09-20T21:04:01.316Z,96991.00
2022-09-20T21:08:05.925Z,96988.00
2022-09-20T21:12:16.312Z,96988.00
2022-09-20T21:16:21.705Z,96997.00
2022-09-20T21:20:32.306Z,96988.00
2022-09-20T21:24:43.306Z,96987.00
2022-09-20T21:28:55.330Z,96978.00
2022-09-20T21:33:12.344Z,97000.00
2022-09-20T21:37:22.302Z,97001.00
2022-09-20T21:41:36.308Z,97011.00
2022-09-20T21:45:47.406Z,96996.00
2022-09-20T21:49:57.376Z,97001.00
2022-09-20T21:54:08.442Z,97004.00
2022-09-20T21:58:20.410Z,97007.00
2022-09-20T22:02:30.354Z,97007.00
2022-09-20T22:06:42.440Z,97015.00
2022-09-20T22:11:02.289Z,97016.00
2022-09-20T22:15:14.309Z,97010.00
2022-09-20T22:19:27.325Z,97006.00
2022-09-20T22:23:30.871Z,97001.00
2022-09-20T22:27:40.300Z,96993.00
2022-09-20T22:32:00.336Z,97011.00
2022-09-20T22:36:10.309Z,97016.00
2022-09-20T22:40:20.369Z,97014.00
2022-09-20T22:44:30.323Z,97011.00
2022-09-20T22:48:42.309Z,97018.00
2022-09-20T22:52:52.293Z,97003.00
2022-09-20T22:57:02.356Z,97008.00
2022-09-20T23:01:17.499Z,97015.00
2022-09-20T23:05:29.328Z,97017.00
2022-09-20T23:09:39.328Z,97022.00
2022-09-20T23:13:49.338Z,97014.00
2022-09-20T23:17:59.305Z,97016.00
2022-09-20T23:22:10.317Z,97021.00
2022-09-20T23:26:16.140Z,97025.00
2022-09-20T23:30:26.351Z,97026.00
2022-09-20T23:34:42.299Z,97016.00
2022-09-20T23:38:47.754Z,97018.00
2022-09-20T23:42:57.311Z,97016.00
2022-09-20T23:47:07.306Z,97012.00
2022-09-20T23:51:18.308Z,97016.00
2022-09-20T23:55:29.323Z,97022.00
2022-09-20T23:59:39.287Z,97017.00
